Time;durP1;ratioP1;P1;durP2;ratioP2;P2;SDS_P1;SDS_P2;PMS_P1;PMS_P2;Temp;Humidity;BMP_temperature;BMP_pressure;BME280_temperature;BME280_humidity;BME280_pressure;Samples;Min_cycle;Max_cycle;Signal;HPM_P1;HPM_P2
2022/04/30 00:00:58;;;;;;;5.78;2.40;;;20.30;93.20;;;;;;4174504;28;20219;-73
2022/04/30 00:03:05;;;;;;;2.90;2.30;;;20.30;92.90;;;;;;4173995;28;20351;-73
2022/04/30 00:05:10;;;;;;;3.17;2.28;;;20.30;93.70;;;;;;4174005;28;20231;-73
2022/04/30 00:07:14;;;;;;;3.47;2.17;;;20.30;93.10;;;;;;4174332;28;20273;-73
2022/04/30 00:09:17;;;;;;;4.05;2.35;;;20.30;93.50;;;;;;4175692;28;20269;-72
2022/04/30 00:11:19;;;;;;;2.88;2.33;;;20.30;93.50;;;;;;4174691;28;20306;-73
2022/04/30 00:13:21;;;;;;;3.78;2.28;;;20.20;93.30;;;;;;4173635;28;20212;-73
2022/04/30 00:15:24;;;;;;;3.10;2.20;;;20.20;93.60;;;;;;4174875;28;20292;-73
2022/04/30 00:17:26;;;;;;;3.45;2.33;;;20.20;92.80;;;;;;4175368;28;20580;-73
2022/04/30 00:19:29;;;;;;;3.22;2.15;;;20.20;93.10;;;;;;4175114;28;20296;-73
2022/04/30 00:21:33;;;;;;;4.15;2.45;;;20.20;93.40;;;;;;4173927;28;20238;-73
2022/04/30 00:23:35;;;;;;;4.68;2.55;;;20.20;93.40;;;;;;4174488;28;20243;-73
2022/04/30 00:25:38;;;;;;;4.63;2.40;;;20.20;92.90;;;;;;4172460;28;20852;-73
2022/04/30 00:27:40;;;;;;;2.65;2.45;;;20.20;93.10;;;;;;4171897;28;20624;-73
2022/04/30 00:29:42;;;;;;;3.95;2.45;;;20.30;93.70;;;;;;4174735;28;20215;-73
2022/04/30 00:31:45;;;;;;;2.28;1.90;;;20.20;92.90;;;;;;4173719;28;20220;-72
2022/04/30 00:33:48;;;;;;;2.17;1.92;;;20.20;93.60;;;;;;4174591;28;20223;-73
2022/04/30 00:36:11;;;;;;;2.80;2.25;;;20.20;93.00;;;;;;4174010;28;20227;-73
2022/04/30 00:38:16;;;;;;;2.65;2.17;;;20.20;92.70;;;;;;4152105;28;20634;-73
2022/04/30 00:40:18;;;;;;;2.90;2.10;;;20.20;93.00;;;;;;4174727;28;20215;-73
2022/04/30 00:42:26;;;;;;;2.53;2.33;;;20.20;92.80;;;;;;4173610;28;20224;-73
2022/04/30 00:44:29;;;;;;;3.72;2.25;;;20.20;92.80;;;;;;4173954;28;20223;-73
2022/04/30 00:46:34;;;;;;;3.33;2.33;;;20.20;93.00;;;;;;4174396;28;20277;-73
2022/04/30 00:48:36;;;;;;;3.28;2.05;;;20.20;92.70;;;;;;4172962;28;20228;-73
2022/04/30 00:50:39;;;;;;;4.10;2.40;;;20.20;92.80;;;;;;4175025;28;20223;-73
2022/04/30 00:52:44;;;;;;;3.65;2.35;;;20.20;92.80;;;;;;4174163;28;20313;-72
2022/04/30 00:54:50;;;;;;;3.05;2.33;;;20.10;93.20;;;;;;4174438;28;20219;-73
2022/04/30 00:56:56;;;;;;;2.70;2.15;;;20.10;92.80;;;;;;4174611;28;20232;-73
2022/04/30 00:59:02;;;;;;;3.53;2.35;;;20.10;92.70;;;;;;4174600;28;20714;-73
2022/04/30 01:01:06;;;;;;;2.33;2.15;;;20.10;92.90;;;;;;4174675;28;20212;-73
2022/04/30 01:03:11;;;;;;;3.92;2.50;;;20.10;92.50;;;;;;4174432;28;20239;-72
2022/04/30 01:05:14;;;;;;;2.63;2.13;;;20.10;92.60;;;;;;4177610;28;20223;-73
2022/04/30 01:07:18;;;;;;;2.70;2.30;;;20.10;92.90;;;;;;4178220;28;20220;-73
2022/04/30 01:09:24;;;;;;;3.17;2.17;;;20.10;93.00;;;;;;4177919;28;21084;-73
2022/04/30 01:11:29;;;;;;;3.45;2.50;;;20.10;92.60;;;;;;4177263;28;20753;-73
2022/04/30 01:13:34;;;;;;;2.42;2.22;;;20.10;92.50;;;;;;4178103;28;20215;-73
2022/04/30 01:15:39;;;;;;;3.95;2.17;;;20.10;92.60;;;;;;4177494;28;20224;-73
2022/04/30 01:17:47;;;;;;;4.63;2.33;;;20.10;92.80;;;;;;4176161;28;20266;-73
2022/04/30 01:19:51;;;;;;;2.92;2.45;;;20.00;92.50;;;;;;4177135;28;20555;-73
2022/04/30 01:21:56;;;;;;;4.32;2.20;;;20.10;92.80;;;;;;4176692;28;20216;-73
2022/04/30 01:24:01;;;;;;;3.15;2.20;;;20.00;93.30;;;;;;4177760;28;20231;-73
2022/04/30 01:26:04;;;;;;;3.75;2.10;;;20.00;92.60;;;;;;4177725;28;20224;-73
2022/04/30 01:28:07;;;;;;;2.92;2.13;;;20.00;92.50;;;;;;4177476;28;20250;-73
2022/04/30 01:30:11;;;;;;;5.72;2.53;;;20.00;92.60;;;;;;4177335;28;20848;-73
2022/04/30 01:39:13;;;;;;;2.78;2.22;;;20.00;92.80;;;;;;4169224;28;20211;-73
2022/04/30 01:41:15;;;;;;;2.67;2.20;;;20.00;92.80;;;;;;4177735;28;20274;-73
2022/04/30 01:43:19;;;;;;;2.70;2.35;;;20.00;92.60;;;;;;4176446;28;20301;-73
2022/04/30 01:45:22;;;;;;;3.05;2.38;;;20.00;92.60;;;;;;4177174;28;20216;-73
2022/04/30 01:47:27;;;;;;;3.33;2.38;;;20.00;92.60;;;;;;4176959;28;20350;-73
2022/04/30 01:49:29;;;;;;;3.38;2.17;;;20.00;92.50;;;;;;4175771;28;20625;-73
2022/04/30 01:51:31;;;;;;;3.33;2.40;;;19.90;92.50;;;;;;4176713;28;20277;-73
2022/04/30 01:53:34;;;;;;;3.45;2.55;;;19.90;92.60;;;;;;4176929;28;20592;-73
2022/04/30 01:55:38;;;;;;;2.20;1.98;;;20.00;92.70;;;;;;4176825;28;20297;-73
2022/04/30 01:57:42;;;;;;;2.80;2.28;;;19.90;92.40;;;;;;4175750;28;20270;-73
2022/04/30 01:59:47;;;;;;;2.95;2.22;;;19.90;92.40;;;;;;4176892;28;20301;-73
2022/04/30 02:01:50;;;;;;;4.32;2.50;;;19.90;92.70;;;;;;4176780;28;20266;-72
2022/04/30 02:03:52;;;;;;;3.10;2.20;;;19.90;92.60;;;;;;4176553;28;20235;-72
2022/04/30 02:05:55;;;;;;;4.72;2.30;;;19.90;92.40;;;;;;4176534;28;20634;-73
2022/04/30 02:08:03;;;;;;;3.50;2.47;;;19.90;92.50;;;;;;4176653;28;20215;-73
2022/04/30 02:10:08;;;;;;;3.50;2.45;;;19.90;92.50;;;;;;4175946;28;20726;-73
2022/04/30 02:12:12;;;;;;;2.58;2.38;;;19.90;92.40;;;;;;4176215;28;20220;-73
2022/04/30 02:14:15;;;;;;;2.67;2.45;;;19.90;92.70;;;;;;4173490;28;20224;-72
2022/04/30 02:16:18;;;;;;;3.17;2.28;;;19.90;93.10;;;;;;4172610;28;20348;-73
2022/04/30 02:18:23;;;;;;;2.83;2.13;;;19.90;92.70;;;;;;4177064;28;20285;-72
2022/04/30 02:20:29;;;;;;;3.20;2.20;;;19.90;92.60;;;;;;4176382;28;20219;-72
2022/04/30 02:22:32;;;;;;;3.28;2.20;;;19.80;92.50;;;;;;4176683;28;20265;-73
2022/04/30 02:24:39;;;;;;;2.47;2.00;;;19.80;92.50;;;;;;4175661;28;20289;-72
2022/04/30 02:26:42;;;;;;;4.03;2.42;;;19.80;92.30;;;;;;4176408;28;20231;-72
2022/04/30 02:28:55;;;;;;;2.20;2.00;;;19.80;92.40;;;;;;4176874;28;20266;-73
2022/04/30 02:30:58;;;;;;;2.25;2.05;;;19.90;92.50;;;;;;4175798;28;20223;-73
2022/04/30 02:33:07;;;;;;;3.10;2.20;;;19.80;92.50;;;;;;4175934;28;20232;-72
2022/04/30 02:35:10;;;;;;;2.40;2.20;;;19.80;92.40;;;;;;4176646;28;20211;-73
2022/04/30 02:37:14;;;;;;;2.67;2.40;;;19.80;92.60;;;;;;4176344;28;20290;-73
2022/04/30 02:39:16;;;;;;;2.70;2.20;;;19.80;92.90;;;;;;4175869;28;20242;-73
2022/04/30 02:41:21;;;;;;;3.42;2.60;;;19.80;92.40;;;;;;4176721;28;20283;-73
2022/04/30 02:43:26;;;;;;;3.20;2.00;;;19.80;92.80;;;;;;4175809;28;20285;-72
2022/04/30 02:45:30;;;;;;;2.80;2.17;;;19.80;92.50;;;;;;4176856;28;20220;-73
2022/04/30 02:47:32;;;;;;;2.25;1.90;;;19.80;92.50;;;;;;4176219;28;20216;-73
2022/04/30 02:49:35;;;;;;;2.75;2.30;;;19.80;92.40;;;;;;4174372;28;20215;-73
2022/04/30 02:51:39;;;;;;;2.35;2.00;;;19.80;92.60;;;;;;4176452;28;20220;-73
2022/04/30 02:53:41;;;;;;;3.50;2.30;;;19.70;92.70;;;;;;4175507;28;20215;-73
2022/04/30 02:55:44;;;;;;;3.28;2.30;;;19.80;92.50;;;;;;4176474;28;20614;-73
2022/04/30 03:00:04;;;;;;;2.70;2.03;;;19.80;92.50;;;;;;4175774;28;20212;-73
2022/04/30 03:02:08;;;;;;;2.20;1.95;;;19.80;92.70;;;;;;4176109;28;20223;-72
2022/04/30 03:04:10;;;;;;;4.45;2.15;;;19.70;92.60;;;;;;4174740;28;20338;-72
2022/04/30 03:06:14;;;;;;;2.33;2.10;;;19.80;92.60;;;;;;4175302;28;20216;-73
2022/04/30 03:08:18;;;;;;;2.45;2.25;;;19.70;92.50;;;;;;4176602;28;20237;-72
2022/04/30 03:10:21;;;;;;;2.38;1.98;;;19.70;92.40;;;;;;4175948;28;20268;-72
2022/04/30 03:12:23;;;;;;;2.10;1.90;;;19.70;92.40;;;;;;4175877;28;20616;-73
2022/04/30 03:14:25;;;;;;;2.17;1.83;;;19.70;92.30;;;;;;4174111;28;20224;-72
2022/04/30 03:23:46;;;;;;;2.33;2.03;;;19.70;92.20;;;;;;4175682;28;20196;-73
2022/04/30 03:25:48;;;;;;;2.53;2.10;;;19.70;92.60;;;;;;4175337;28;20218;-72
2022/04/30 03:27:50;;;;;;;2.95;2.20;;;19.60;92.30;;;;;;4175818;28;20644;-73
2022/04/30 03:29:53;;;;;;;2.50;1.90;;;19.70;92.30;;;;;;4175955;28;20717;-73
2022/04/30 03:31:56;;;;;;;3.25;2.20;;;19.70;92.40;;;;;;4176227;28;20220;-73
2022/04/30 03:33:59;;;;;;;2.40;2.20;;;19.70;92.50;;;;;;4175055;28;20242;-72
2022/04/30 03:36:02;;;;;;;2.83;1.70;;;19.60;92.30;;;;;;4175574;28;20273;-73
2022/04/30 03:38:04;;;;;;;3.58;2.10;;;19.60;92.30;;;;;;4175320;28;20216;-73
2022/04/30 03:40:08;;;;;;;2.50;2.00;;;19.60;92.20;;;;;;4176173;28;20935;-73
2022/04/30 03:42:10;;;;;;;2.58;1.88;;;19.60;92.40;;;;;;4175416;28;20280;-72
2022/04/30 03:44:12;;;;;;;2.55;2.10;;;19.70;92.40;;;;;;4174746;28;20240;-72
2022/04/30 03:46:15;;;;;;;2.00;1.80;;;19.60;92.40;;;;;;4175695;28;20227;-73
2022/04/30 03:48:18;;;;;;;2.70;2.08;;;19.60;92.40;;;;;;4175066;28;20227;-73
2022/04/30 03:50:21;;;;;;;2.30;1.90;;;19.60;92.70;;;;;;4175808;28;20227;-73
2022/04/30 03:52:24;;;;;;;2.70;1.98;;;19.60;92.40;;;;;;4175103;28;20224;-72
2022/04/30 03:54:26;;;;;;;2.78;2.00;;;19.60;92.30;;;;;;4175138;28;20661;-73
2022/04/30 03:56:28;;;;;;;3.15;2.10;;;19.60;92.60;;;;;;4174177;28;20296;-73
2022/04/30 03:58:32;;;;;;;3.40;2.30;;;19.60;92.40;;;;;;4174715;28;20232;-72
2022/04/30 04:00:34;;;;;;;2.63;2.20;;;19.60;92.20;;;;;;4175527;28;20620;-72
2022/04/30 04:02:39;;;;;;;2.10;1.85;;;19.60;92.20;;;;;;4171368;28;20215;-73
2022/04/30 04:04:42;;;;;;;2.28;1.83;;;19.60;92.20;;;;;;4173544;28;20251;-72
2022/04/30 04:06:46;;;;;;;2.90;2.00;;;19.60;92.30;;;;;;4175037;28;20223;-72
2022/04/30 04:08:51;;;;;;;2.35;1.90;;;19.60;92.30;;;;;;4174995;28;20223;-78
2022/04/30 04:10:53;;;;;;;2.03;1.83;;;19.60;92.20;;;;;;4176044;28;20254;-78
2022/04/30 04:17:37;;;;;;;3.65;2.10;;;19.60;92.20;;;;;;4175536;28;20216;-77
2022/04/30 04:17:47;;;;;;;2.28;1.67;;;19.60;92.30;;;;;;4135459;28;20209;-77
2022/04/30 04:19:49;;;;;;;4.00;1.80;;;19.60;92.20;;;;;;4170338;28;20273;-78
2022/04/30 04:21:53;;;;;;;2.42;2.10;;;19.60;92.20;;;;;;4174955;28;20253;-73
2022/04/30 04:26:15;;;;;;;2.47;2.08;;;19.50;92.30;;;;;;4174451;28;20223;-73
2022/04/30 04:28:17;;;;;;;2.63;1.95;;;19.50;92.30;;;;;;4174410;28;20220;-73
2022/04/30 04:30:20;;;;;;;2.30;1.98;;;19.50;92.30;;;;;;4174768;28;20702;-72
2022/04/30 04:32:24;;;;;;;2.22;1.92;;;19.50;92.20;;;;;;4174680;28;20223;-72
2022/04/30 04:34:26;;;;;;;3.88;1.92;;;19.50;92.10;;;;;;4175142;28;20219;-77
2022/04/30 04:36:29;;;;;;;3.22;1.92;;;19.50;92.20;;;;;;4174084;28;20236;-78
2022/04/30 04:38:33;;;;;;;2.75;1.70;;;19.50;92.30;;;;;;4178216;28;20672;-77
2022/04/30 04:40:36;;;;;;;3.40;2.40;;;19.50;92.20;;;;;;4178710;28;20215;-78
2022/04/30 04:42:38;;;;;;;2.20;1.95;;;19.50;92.30;;;;;;4177741;28;20277;-77
2022/04/30 04:44:40;;;;;;;2.70;1.85;;;19.50;92.10;;;;;;4177946;28;20245;-77
2022/04/30 04:46:43;;;;;;;3.15;1.98;;;19.50;92.20;;;;;;4177077;28;20292;-77
2022/04/30 04:48:46;;;;;;;2.38;1.75;;;19.50;92.20;;;;;;4177879;28;20977;-77
2022/04/30 04:50:48;;;;;;;2.30;2.05;;;19.50;92.10;;;;;;4179468;28;20219;-78
2022/04/30 04:52:51;;;;;;;2.35;1.73;;;19.50;92.30;;;;;;4178368;28;20289;-78
2022/04/30 04:54:54;;;;;;;2.33;2.00;;;19.50;92.10;;;;;;4175891;28;20269;-77
2022/04/30 04:56:57;;;;;;;2.90;1.98;;;19.50;92.20;;;;;;4178016;28;20273;-77
2022/04/30 04:59:00;;;;;;;2.35;2.13;;;19.50;92.70;;;;;;4177918;28;20227;-77
2022/04/30 05:01:02;;;;;;;2.60;2.00;;;19.40;92.10;;;;;;4177682;28;20273;-77
2022/04/30 05:03:04;;;;;;;2.75;1.90;;;19.50;92.20;;;;;;4177458;28;21015;-77
2022/04/30 05:05:08;;;;;;;2.05;1.77;;;19.40;92.10;;;;;;4177370;28;20235;-77
2022/04/30 05:07:11;;;;;;;2.20;1.70;;;19.40;92.20;;;;;;4178251;28;20617;-77
2022/04/30 05:09:13;;;;;;;1.98;1.80;;;19.40;92.10;;;;;;4177976;28;20252;-77
2022/04/30 05:11:17;;;;;;;2.30;1.90;;;19.40;92.10;;;;;;4178871;28;20215;-78
2022/04/30 05:13:19;;;;;;;2.30;1.83;;;19.40;92.10;;;;;;4178068;28;20293;-77
2022/04/30 05:15:22;;;;;;;2.38;1.67;;;19.40;92.10;;;;;;4177631;28;20286;-77
2022/04/30 05:17:24;;;;;;;2.00;1.80;;;19.50;92.10;;;;;;4178117;28;20223;-77
2022/04/30 05:19:26;;;;;;;2.72;2.17;;;19.40;92.10;;;;;;4177827;28;20216;-78
2022/04/30 05:21:29;;;;;;;1.92;1.83;;;19.50;92.10;;;;;;4178662;28;20220;-77
2022/04/30 05:23:32;;;;;;;2.35;2.10;;;19.40;92.20;;;;;;4178439;28;20242;-78
2022/04/30 05:25:37;;;;;;;2.10;1.85;;;19.40;92.10;;;;;;4177855;28;20304;-78
2022/04/30 05:27:41;;;;;;;2.58;1.98;;;19.40;92.10;;;;;;4178545;28;20622;-77
2022/04/30 05:29:43;;;;;;;2.17;1.70;;;19.40;92.10;;;;;;4177362;28;20216;-77
2022/04/30 05:31:46;;;;;;;1.92;1.70;;;19.40;92.20;;;;;;4178356;28;20282;-77
2022/04/30 05:33:48;;;;;;;3.05;1.80;;;19.40;92.20;;;;;;4177858;28;20223;-77
2022/04/30 05:35:50;;;;;;;1.98;1.85;;;19.40;92.20;;;;;;4177788;28;20217;-77
2022/04/30 05:37:52;;;;;;;2.75;1.73;;;19.40;92.20;;;;;;4177805;28;20215;-77
2022/04/30 05:39:54;;;;;;;1.50;1.40;;;19.40;92.10;;;;;;4177838;28;20667;-78
2022/04/30 05:41:57;;;;;;;2.15;1.80;;;19.40;92.10;;;;;;4178163;28;20263;-78
2022/04/30 05:44:00;;;;;;;2.38;1.90;;;19.40;92.10;;;;;;4177968;28;20293;-77
2022/04/30 05:46:03;;;;;;;1.85;1.70;;;19.40;92.10;;;;;;4177095;28;20243;-77
2022/04/30 05:48:06;;;;;;;2.60;1.90;;;19.40;92.10;;;;;;4176055;28;20262;-77
2022/04/30 05:50:10;;;;;;;2.33;1.88;;;19.40;92.10;;;;;;4175143;28;20220;-77
2022/04/30 05:52:12;;;;;;;2.08;1.88;;;19.40;92.20;;;;;;4175608;28;20227;-77
2022/04/30 05:54:14;;;;;;;3.95;2.03;;;19.40;92.10;;;;;;4177133;28;20228;-78
2022/04/30 05:56:17;;;;;;;3.13;1.80;;;19.40;92.10;;;;;;4177650;28;20282;-77
2022/04/30 05:58:19;;;;;;;2.10;1.80;;;19.40;92.10;;;;;;4177903;28;20277;-78
2022/04/30 06:00:23;;;;;;;2.42;2.00;;;19.40;92.00;;;;;;4177530;28;20227;-78
2022/04/30 06:02:26;;;;;;;3.30;1.90;;;19.40;92.00;;;;;;4177630;28;20215;-77
2022/04/30 06:04:28;;;;;;;2.35;1.67;;;19.40;92.40;;;;;;4177373;28;20693;-78
2022/04/30 06:06:30;;;;;;;2.20;1.77;;;19.40;92.10;;;;;;4176826;28;20312;-77
2022/04/30 06:08:33;;;;;;;2.65;2.08;;;19.40;92.10;;;;;;4177783;28;20281;-77
2022/04/30 06:10:36;;;;;;;3.30;2.08;;;19.50;92.10;;;;;;4177073;28;20227;-77
2022/04/30 06:12:39;;;;;;;2.55;1.92;;;19.40;92.10;;;;;;4177519;28;20216;-77
2022/04/30 06:14:41;;;;;;;2.50;2.15;;;19.40;92.00;;;;;;4176896;28;20228;-77
2022/04/30 06:16:45;;;;;;;1.95;1.65;;;19.40;92.30;;;;;;4177142;28;20208;-77
2022/04/30 06:18:47;;;;;;;2.42;2.00;;;19.40;92.10;;;;;;4177058;28;20254;-77
2022/04/30 06:20:49;;;;;;;2.58;1.70;;;19.40;92.00;;;;;;4177328;28;20301;-77
2022/04/30 06:22:52;;;;;;;2.65;1.75;;;19.40;92.20;;;;;;4177506;28;20215;-78
2022/04/30 06:24:54;;;;;;;2.75;1.80;;;19.40;92.00;;;;;;4176999;28;20249;-77
2022/04/30 06:26:57;;;;;;;2.83;1.90;;;19.40;92.00;;;;;;4176694;28;20292;-77
2022/04/30 06:28:59;;;;;;;3.22;1.90;;;19.40;92.00;;;;;;4176630;28;20220;-77
2022/04/30 06:31:02;;;;;;;2.85;1.92;;;19.40;92.10;;;;;;4177062;28;21580;-78
2022/04/30 06:33:06;;;;;;;2.38;1.70;;;19.40;92.10;;;;;;4177129;28;20274;-77
2022/04/30 06:35:09;;;;;;;3.00;2.08;;;19.40;92.10;;;;;;4176616;28;20228;-77
2022/04/30 06:37:11;;;;;;;2.60;1.85;;;19.40;92.00;;;;;;4176303;28;20277;-77
2022/04/30 06:39:14;;;;;;;2.60;2.00;;;19.40;92.20;;;;;;4176607;28;20223;-78
2022/04/30 06:41:16;;;;;;;3.03;2.10;;;19.40;92.20;;;;;;4175496;28;20216;-77
2022/04/30 06:43:18;;;;;;;2.22;1.88;;;19.40;92.10;;;;;;4176521;28;20269;-78
2022/04/30 06:45:21;;;;;;;2.17;1.98;;;19.40;92.20;;;;;;4175238;28;20232;-77
2022/04/30 06:47:23;;;;;;;3.50;2.08;;;19.40;92.00;;;;;;4176202;28;20313;-78
2022/04/30 06:49:27;;;;;;;2.33;1.67;;;19.40;92.00;;;;;;4176310;28;20224;-78
2022/04/30 06:51:29;;;;;;;2.20;1.90;;;19.40;92.00;;;;;;4176501;28;20323;-77
2022/04/30 06:58:13;;;;;;;2.22;1.55;;;19.40;92.10;;;;;;4176009;28;20212;-77
2022/04/30 07:02:36;;;;;;;2.33;1.70;;;19.40;92.30;;;;;;4175117;28;20310;-77
2022/04/30 07:04:41;;;;;;;2.45;1.80;;;19.40;91.90;;;;;;4175046;28;20334;-77
2022/04/30 07:06:44;;;;;;;3.20;1.80;;;19.20;92.10;;;;;;4175164;28;20260;-77
2022/04/30 07:08:46;;;;;;;2.83;1.95;;;19.10;92.40;;;;;;4175323;28;20220;-77
2022/04/30 07:10:48;;;;;;;2.10;1.60;;;19.20;92.20;;;;;;4175814;28;20665;-77
2022/04/30 07:12:50;;;;;;;1.98;1.77;;;19.30;92.30;;;;;;4175666;28;20320;-77
2022/04/30 07:14:53;;;;;;;3.55;1.67;;;19.40;93.00;;;;;;4174831;28;20242;-77
2022/04/30 07:16:55;;;;;;;3.35;1.90;;;19.40;92.70;;;;;;4175727;28;20278;-77
2022/04/30 07:18:58;;;;;;;2.08;1.67;;;19.50;93.10;;;;;;4174702;28;20333;-77
2022/04/30 07:21:02;;;;;;;2.25;1.80;;;19.50;93.40;;;;;;4175016;28;20604;-77
2022/04/30 07:23:05;;;;;;;2.47;1.88;;;19.50;93.40;;;;;;4175859;28;20277;-77
2022/04/30 07:25:08;;;;;;;2.80;1.65;;;19.60;93.60;;;;;;4175395;28;20303;-77
2022/04/30 07:27:10;;;;;;;2.90;1.73;;;19.60;93.60;;;;;;4175165;28;20254;-77
2022/04/30 07:29:13;;;;;;;2.00;1.70;;;19.60;93.50;;;;;;4174842;28;20224;-77
2022/04/30 07:31:15;;;;;;;1.90;1.60;;;19.60;93.50;;;;;;4174208;28;20223;-77
2022/04/30 07:33:17;;;;;;;1.73;1.48;;;19.70;93.70;;;;;;4175677;28;20604;-77
2022/04/30 07:35:20;;;;;;;2.58;1.90;;;19.70;93.60;;;;;;4174863;28;20219;-77
2022/04/30 07:37:23;;;;;;;3.30;1.80;;;19.70;93.50;;;;;;4175452;28;20224;-77
2022/04/30 07:39:25;;;;;;;2.03;1.83;;;19.70;93.60;;;;;;4170976;28;20275;-77
2022/04/30 07:41:28;;;;;;;2.55;1.60;;;19.80;93.50;;;;;;4174620;28;20219;-77
2022/04/30 07:43:31;;;;;;;1.60;1.45;;;19.80;93.40;;;;;;4175244;28;20216;-77
2022/04/30 07:45:33;;;;;;;2.55;1.67;;;19.80;93.50;;;;;;4175189;28;20250;-78
2022/04/30 07:47:36;;;;;;;1.63;1.52;;;19.80;93.20;;;;;;4175228;28;20653;-78
2022/04/30 07:49:38;;;;;;;1.63;1.52;;;19.80;93.30;;;;;;4174221;28;20274;-77
2022/04/30 07:51:52;;;;;;;1.80;1.50;;;19.90;93.40;;;;;;4174880;28;20636;-77
2022/04/30 07:53:56;;;;;;;2.13;1.52;;;19.80;93.20;;;;;;4174707;28;20219;-78
2022/04/30 07:55:58;;;;;;;3.28;1.65;;;19.90;93.30;;;;;;4174469;28;20610;-77
2022/04/30 07:58:02;;;;;;;2.50;1.80;;;19.90;93.30;;;;;;4175224;28;20212;-77
2022/04/30 08:00:06;;;;;;;2.42;1.70;;;19.90;93.30;;;;;;4174727;28;20228;-77
2022/04/30 08:02:08;;;;;;;3.40;1.45;;;19.90;93.30;;;;;;4174108;28;20234;-77
2022/04/30 08:04:11;;;;;;;3.42;1.95;;;19.90;93.30;;;;;;4175400;28;20646;-77
2022/04/30 08:06:13;;;;;;;2.47;1.50;;;20.00;93.30;;;;;;4174855;28;20227;-77
2022/04/30 08:08:16;;;;;;;3.25;1.75;;;20.00;93.60;;;;;;4174930;28;20278;-77
2022/04/30 08:10:20;;;;;;;1.65;1.42;;;20.00;93.10;;;;;;4174302;28;20342;-78
2022/04/30 08:12:22;;;;;;;1.77;1.63;;;20.00;93.00;;;;;;4174382;28;20253;-78
2022/04/30 08:14:25;;;;;;;1.58;1.48;;;20.10;93.10;;;;;;4174075;28;20265;-77
2022/04/30 08:16:28;;;;;;;1.70;1.60;;;20.10;93.00;;;;;;4175036;28;20293;-78
2022/04/30 08:18:30;;;;;;;1.98;1.60;;;20.10;92.90;;;;;;4174576;28;20215;-78
2022/04/30 08:20:33;;;;;;;2.08;1.65;;;20.10;92.80;;;;;;4173432;28;20638;-77
2022/04/30 08:22:35;;;;;;;2.45;1.23;;;20.20;92.90;;;;;;4174455;28;20231;-78
2022/04/30 08:24:37;;;;;;;2.03;1.55;;;20.30;93.00;;;;;;4174721;28;20223;-77
2022/04/30 08:26:43;;;;;;;2.35;1.58;;;20.20;92.80;;;;;;4174092;28;20735;-77
2022/04/30 08:28:45;;;;;;;2.65;1.70;;;20.20;92.80;;;;;;4173797;28;20215;-73
2022/04/30 08:30:48;;;;;;;1.50;1.40;;;20.20;92.70;;;;;;4172377;28;20219;-72
2022/04/30 08:32:50;;;;;;;1.73;1.48;;;20.20;92.60;;;;;;4173309;28;20313;-72
2022/04/30 08:34:52;;;;;;;2.97;1.40;;;20.20;92.50;;;;;;4172919;28;20215;-73
2022/04/30 08:36:54;;;;;;;2.60;1.50;;;20.30;92.50;;;;;;4173470;28;20285;-72
2022/04/30 08:38:57;;;;;;;1.55;1.45;;;20.30;92.40;;;;;;4173690;28;21165;-72
2022/04/30 08:40:59;;;;;;;1.60;1.40;;;20.30;92.50;;;;;;4174442;28;20223;-72
2022/04/30 08:43:09;;;;;;;2.17;1.55;;;20.30;92.20;;;;;;4174390;28;20219;-72
2022/04/30 08:45:11;;;;;;;2.95;1.80;;;20.30;92.20;;;;;;4174409;28;20281;-72
2022/04/30 08:47:14;;;;;;;1.60;1.50;;;20.30;92.20;;;;;;4174697;28;20301;-73
2022/04/30 08:49:16;;;;;;;3.22;1.58;;;20.40;92.10;;;;;;4173075;28;20257;-72
2022/04/30 08:51:19;;;;;;;1.55;1.45;;;20.40;92.10;;;;;;4174956;28;20627;-72
2022/04/30 08:53:21;;;;;;;3.05;1.80;;;20.40;92.00;;;;;;4174904;28;20224;-72
2022/04/30 08:55:24;;;;;;;3.63;1.80;;;20.40;91.90;;;;;;4175343;28;20212;-72
2022/04/30 08:57:26;;;;;;;2.08;1.42;;;20.40;91.90;;;;;;4174487;28;20285;-72
2022/04/30 08:59:31;;;;;;;2.22;1.58;;;20.50;92.10;;;;;;4174406;28;20300;-72
2022/04/30 09:01:45;;;;;;;1.90;1.65;;;20.50;92.10;;;;;;4174165;28;20215;-72
2022/04/30 09:03:48;;;;;;;2.47;1.73;;;20.50;91.70;;;;;;4173486;28;20692;-72
2022/04/30 09:05:50;;;;;;;2.10;1.60;;;20.50;91.60;;;;;;4174040;28;20265;-72
2022/04/30 09:07:54;;;;;;;3.35;1.63;;;20.50;91.70;;;;;;4174160;28;20236;-72
2022/04/30 09:09:58;;;;;;;1.67;1.58;;;20.50;91.70;;;;;;4174598;28;20228;-72
2022/04/30 09:12:08;;;;;;;1.58;1.40;;;20.50;91.70;;;;;;4173926;28;20680;-72
2022/04/30 09:14:10;;;;;;;2.22;1.77;;;20.50;91.80;;;;;;4172356;28;20278;-72
2022/04/30 09:16:21;;;;;;;2.35;1.48;;;20.50;91.70;;;;;;4173574;28;20262;-72
2022/04/30 09:18:24;;;;;;;2.17;1.90;;;20.50;91.80;;;;;;4173340;28;20721;-72
2022/04/30 09:20:28;;;;;;;2.30;1.70;;;20.60;91.80;;;;;;4172754;28;20274;-72
2022/04/30 09:22:33;;;;;;;3.10;2.03;;;20.60;91.70;;;;;;4173757;28;20563;-72
2022/04/30 09:24:46;;;;;;;1.65;1.55;;;20.70;91.60;;;;;;4175043;28;20231;-72
2022/04/30 09:26:49;;;;;;;1.80;1.65;;;20.70;91.70;;;;;;4173605;28;20270;-72
2022/04/30 09:28:51;;;;;;;2.22;1.52;;;20.70;91.70;;;;;;4171979;28;20301;-72
2022/04/30 09:31:04;;;;;;;2.63;1.50;;;20.80;91.70;;;;;;4175827;28;20281;-72
2022/04/30 09:33:09;;;;;;;1.88;1.67;;;20.80;91.60;;;;;;4175521;28;20467;-72
2022/04/30 09:37:41;;;;;;;1.90;1.60;;;20.90;91.50;;;;;;4176513;28;20207;-72
2022/04/30 09:39:43;;;;;;;1.77;1.67;;;21.00;91.50;;;;;;4176478;28;20212;-72
2022/04/30 09:41:46;;;;;;;2.20;1.67;;;20.90;91.30;;;;;;4176292;28;20220;-72
2022/04/30 09:43:58;;;;;;;2.20;1.60;;;21.00;91.00;;;;;;4175508;28;20220;-72
2022/04/30 09:46:01;;;;;;;3.13;1.55;;;20.90;91.20;;;;;;4176357;28;20227;-72
2022/04/30 09:53:56;;;;;;;3.00;1.65;;;21.00;91.00;;;;;;4176040;28;20757;-72
2022/04/30 09:55:10;;;;;;;1.90;1.67;;;21.00;90.90;;;;;;4176392;28;20228;-72
2022/04/30 09:57:15;;;;;;;3.00;1.67;;;21.10;91.30;;;;;;4175325;28;20223;-72
2022/04/30 09:59:17;;;;;;;2.05;1.33;;;21.10;90.90;;;;;;4176187;28;20656;-72
2022/04/30 10:01:20;;;;;;;3.22;1.40;;;21.10;91.10;;;;;;4174558;28;20215;-72
2022/04/30 10:03:26;;;;;;;1.83;1.63;;;21.10;91.00;;;;;;4176302;28;20269;-72
2022/04/30 10:05:32;;;;;;;2.47;1.42;;;21.20;91.10;;;;;;4176277;28;20224;-72
2022/04/30 10:07:35;;;;;;;1.50;1.33;;;21.20;91.30;;;;;;4175829;28;21026;-72
2022/04/30 10:09:42;;;;;;;2.28;1.60;;;21.20;91.00;;;;;;4176049;28;20690;-72
2022/04/30 10:11:52;;;;;;;2.03;1.40;;;21.20;90.90;;;;;;4174388;28;20274;-72
2022/04/30 10:14:09;;;;;;;1.65;1.50;;;21.20;91.00;;;;;;4175460;28;20269;-72
2022/04/30 10:16:16;;;;;;;3.45;1.58;;;21.20;90.90;;;;;;4175451;28;20228;-72
2022/04/30 10:18:23;;;;;;;2.15;1.55;;;21.30;91.10;;;;;;4174898;28;20215;-72
2022/04/30 10:20:29;;;;;;;2.20;1.50;;;21.20;91.10;;;;;;4175100;28;20207;-72
2022/04/30 10:22:35;;;;;;;2.05;1.42;;;21.30;91.40;;;;;;4175289;28;20251;-72
2022/04/30 10:24:43;;;;;;;1.90;1.40;;;21.30;91.40;;;;;;4174549;28;20635;-72
2022/04/30 10:26:59;;;;;;;1.77;1.48;;;21.30;91.20;;;;;;4175281;28;20796;-72
2022/04/30 10:29:03;;;;;;;1.60;1.50;;;21.30;90.90;;;;;;4175314;28;20711;-72
2022/04/30 10:31:09;;;;;;;1.50;1.40;;;21.30;90.80;;;;;;4175532;28;20212;-72
2022/04/30 10:33:11;;;;;;;1.63;1.50;;;21.30;90.80;;;;;;4174966;28;20591;-72
2022/04/30 10:35:14;;;;;;;2.15;1.77;;;21.30;90.70;;;;;;4174088;28;20274;-72
2022/04/30 10:37:27;;;;;;;1.85;1.50;;;21.30;90.70;;;;;;4175348;28;20207;-72
2022/04/30 10:39:31;;;;;;;1.85;1.50;;;21.30;91.00;;;;;;4174961;28;20269;-72
2022/04/30 10:41:42;;;;;;;1.77;1.67;;;21.40;90.80;;;;;;4175023;28;20224;-72
2022/04/30 10:43:44;;;;;;;2.40;1.85;;;21.40;90.70;;;;;;4174912;28;20265;-72
2022/04/30 10:45:47;;;;;;;3.03;1.60;;;21.40;90.70;;;;;;4175109;28;20669;-72
2022/04/30 10:47:52;;;;;;;2.00;1.60;;;21.40;90.80;;;;;;4174936;28;20221;-72
2022/04/30 10:49:55;;;;;;;2.95;1.90;;;21.40;90.90;;;;;;4174821;28;20246;-72
2022/04/30 10:52:00;;;;;;;2.25;1.60;;;21.40;90.90;;;;;;4175341;28;20223;-72
2022/04/30 10:54:08;;;;;;;1.95;1.52;;;21.40;90.80;;;;;;4175591;28;20289;-72
2022/04/30 10:56:12;;;;;;;2.00;1.80;;;21.40;90.70;;;;;;4176392;28;20249;-72
2022/04/30 10:58:23;;;;;;;2.85;1.80;;;21.40;90.60;;;;;;4176156;28;20216;-72
2022/04/30 11:00:26;;;;;;;2.22;1.60;;;21.40;90.40;;;;;;4174715;28;20211;-72
2022/04/30 11:02:33;;;;;;;2.45;1.63;;;21.50;90.80;;;;;;4175940;28;20680;-72
2022/04/30 11:04:35;;;;;;;2.05;1.52;;;21.50;90.60;;;;;;4175809;28;20239;-78
2022/04/30 11:06:39;;;;;;;1.83;1.40;;;21.40;90.70;;;;;;4177615;28;20749;-78
2022/04/30 11:08:41;;;;;;;3.35;1.70;;;21.40;91.00;;;;;;4177695;28;20285;-78
2022/04/30 11:10:51;;;;;;;2.92;1.55;;;21.50;90.90;;;;;;4176150;28;20245;-78
2022/04/30 11:13:04;;;;;;;2.17;1.83;;;21.50;90.70;;;;;;4176680;28;20660;-78
2022/04/30 11:15:07;;;;;;;1.52;1.38;;;21.50;90.60;;;;;;4173297;28;20774;-77
2022/04/30 11:17:10;;;;;;;3.20;1.60;;;21.40;91.00;;;;;;4175869;28;20246;-78
2022/04/30 11:19:14;;;;;;;2.00;1.67;;;21.50;91.00;;;;;;4176830;28;20223;-78
2022/04/30 11:21:16;;;;;;;1.95;1.52;;;21.50;91.00;;;;;;4177096;28;20211;-78